Pagina principale
METAR-TAF:

METAR-TAF

Aeroporti :

Schwäbisch Hall, Germania

latitudine: 49-07-06N, longitudine: 9-47-02E, altezza: 398 m

Osservazione

Il bollettino è stato emesso 13 minuti fa, alle 19:20 UTC
Vento 1 kt da direzioni variabili
Temperature -2°C
Umidità 100%
Pressione 1024 hPa
Visibilità 10 km o più
nessuna nube inferiore a 1500 m e nessun cumulonembo

METAR: EDTY 101920Z VRB01KT CAVOK M02/M02 Q1024

Ora: 20:33 (19:33 UTC)

Previsione

Il bollettino è stato emesso 2 ore e 33 minuti fa, alle 17:00 UTC
Previsione valida dal 10 alle 18 UTC al 11 alle 03 UTC
Vento 4 kt da sud/sud-est
Visibilità 10 km o più
nessuna nube inferiore a 1500 m e nessun cumulonembo

TAF: EDTY 101700Z 1018/1103 16004KT CAVOK

Osservazioni e previsioni meteorologiche di più di 4000 aeroporti (messaggi METAR e TAF).

Le stazioni disponibili sono rappresentate dai dischi gialli e rossi sulla carta.

Puntare il mouse per vedere il nome della stazione.

Clicca sopra per visualizzare le osservazioni e previsioni meteorologiche.

Per cambiare la mappa : fare clic sui pulsanti verdi con una croce nera per ingrandire, il pulsante verde con un trattino per diminuire, o sulla freccia verde per le mappe adiacenti.


METAR-TAF: